Time;durP1;ratioP1;P1;durP2;ratioP2;P2;SDS_P1;SDS_P2;PMS_P1;PMS_P2;Temp;Humidity;BMP_temperature;BMP_pressure;BME280_temperature;BME280_humidity;BME280_pressure;Samples;Min_cycle;Max_cycle;Signal;HPM_P1;HPM_P2
2024/01/01 00:00:45;;;;;;;80.40;64.70;;;7.20;99.90;;;;;;4979508;28;20481;-63
2024/01/01 00:03:18;;;;;;;57.90;48.10;;;7.20;99.90;;;;;;4981604;28;20501;-64
2024/01/01 00:05:46;;;;;;;63.63;51.53;;;7.20;99.90;;;;;;4980744;28;20480;-64
2024/01/01 00:08:14;;;;;;;70.53;53.80;;;7.20;99.90;;;;;;4979825;28;20580;-64
2024/01/01 00:10:44;;;;;;;65.50;52.77;;;7.20;99.90;;;;;;4980271;28;20804;-64
2024/01/01 00:13:12;;;;;;;63.33;50.60;;;7.20;99.90;;;;;;4980826;28;20971;-64
2024/01/01 00:15:40;;;;;;;60.03;46.77;;;7.20;99.90;;;;;;4980658;28;20475;-64
2024/01/01 00:18:08;;;;;;;59.90;44.60;;;7.20;99.90;;;;;;4980470;28;20488;-64
2024/01/01 00:20:38;;;;;;;57.47;44.47;;;7.10;99.90;;;;;;4979536;28;20479;-64
2024/01/01 00:23:06;;;;;;;52.60;41.63;;;7.10;99.90;;;;;;4980349;28;20493;-64
2024/01/01 00:25:36;;;;;;;52.27;43.20;;;7.10;99.90;;;;;;4980704;28;20486;-64
2024/01/01 00:28:05;;;;;;;45.50;40.07;;;7.00;99.90;;;;;;4980585;28;20990;-64
2024/01/01 00:30:34;;;;;;;42.23;36.60;;;7.00;99.90;;;;;;4979141;28;20555;-64
2024/01/01 00:33:02;;;;;;;43.00;33.80;;;6.90;99.90;;;;;;4980182;28;20517;-64
2024/01/01 00:35:30;;;;;;;44.03;32.33;;;6.90;99.90;;;;;;4978858;28;20532;-64
2024/01/01 00:38:00;;;;;;;39.03;29.73;;;6.90;99.90;;;;;;4979648;28;21028;-64
2024/01/01 00:40:28;;;;;;;36.27;27.50;;;6.90;99.90;;;;;;4980532;28;20469;-64
2024/01/01 00:42:56;;;;;;;35.60;27.20;;;6.90;99.90;;;;;;4972850;28;20698;-64
2024/01/01 00:45:24;;;;;;;33.10;26.10;;;6.80;99.90;;;;;;4980708;28;20855;-64
2024/01/01 00:48:07;;;;;;;34.83;27.17;;;6.80;99.90;;;;;;4980577;28;20563;-64
2024/01/01 00:50:35;;;;;;;31.93;24.77;;;6.80;99.90;;;;;;4980715;28;20473;-64
2024/01/01 00:53:05;;;;;;;32.70;24.47;;;6.80;99.90;;;;;;4979564;28;21025;-64
2024/01/01 00:55:33;;;;;;;33.63;24.90;;;6.80;99.90;;;;;;4980867;28;21008;-64
2024/01/01 00:58:01;;;;;;;29.20;23.20;;;6.70;99.90;;;;;;4979255;28;20485;-64
2024/01/01 01:00:30;;;;;;;26.03;20.97;;;6.70;99.90;;;;;;4980428;28;20513;-64
2024/01/01 01:02:58;;;;;;;27.33;21.10;;;6.70;99.90;;;;;;4985693;28;20525;-64
2024/01/01 01:05:26;;;;;;;27.30;21.70;;;6.70;99.90;;;;;;4982879;28;20926;-64
2024/01/01 01:07:54;;;;;;;26.07;21.23;;;6.60;99.90;;;;;;4983805;28;20516;-64
2024/01/01 01:10:23;;;;;;;25.80;17.50;;;6.60;99.90;;;;;;4983525;28;20528;-64
2024/01/01 01:12:53;;;;;;;22.77;18.60;;;6.60;99.90;;;;;;4982266;28;20563;-63
2024/01/01 01:15:22;;;;;;;21.93;17.83;;;6.70;99.90;;;;;;4984145;28;20468;-64
2024/01/01 01:17:50;;;;;;;26.43;19.37;;;6.70;99.90;;;;;;4983665;28;20576;-64
2024/01/01 01:20:19;;;;;;;24.40;17.63;;;6.70;99.90;;;;;;4984973;28;20843;-64
2024/01/01 01:22:47;;;;;;;23.47;17.20;;;6.70;99.90;;;;;;4977305;28;20488;-63
2024/01/01 01:25:16;;;;;;;23.00;17.43;;;6.70;99.90;;;;;;4983718;28;20560;-64
2024/01/01 01:27:46;;;;;;;20.53;15.90;;;6.70;99.90;;;;;;4982086;28;21014;-64
2024/01/01 01:30:15;;;;;;;21.90;16.00;;;6.70;99.90;;;;;;4982638;28;20469;-64
2024/01/01 01:32:43;;;;;;;22.10;16.37;;;6.70;99.90;;;;;;4984892;28;20469;-64
2024/01/01 01:35:11;;;;;;;20.23;14.73;;;6.70;99.90;;;;;;4983318;28;20537;-64
2024/01/01 01:37:39;;;;;;;20.90;15.10;;;6.70;99.90;;;;;;4983851;28;20484;-64
2024/01/01 01:40:09;;;;;;;19.10;16.00;;;6.70;99.90;;;;;;4982371;28;20516;-64
2024/01/01 01:42:37;;;;;;;20.47;14.40;;;6.70;99.90;;;;;;4982250;28;20576;-64
2024/01/01 01:45:07;;;;;;;17.90;13.30;;;6.80;99.90;;;;;;4983014;28;20484;-64
2024/01/01 01:47:36;;;;;;;19.33;12.40;;;6.80;99.90;;;;;;4983008;28;20614;-66
2024/01/01 01:50:06;;;;;;;16.13;13.13;;;6.70;99.90;;;;;;4978259;28;20544;-64
2024/01/01 01:52:35;;;;;;;15.67;11.43;;;6.80;99.90;;;;;;4983487;28;20485;-64
2024/01/01 01:55:04;;;;;;;16.57;10.37;;;6.70;99.90;;;;;;4983922;28;20473;-64
2024/01/01 01:57:34;;;;;;;13.90;11.17;;;6.70;99.90;;;;;;4981885;28;20559;-65
2024/01/01 02:00:04;;;;;;;17.20;11.67;;;6.80;99.90;;;;;;4981967;28;20533;-64
2024/01/01 02:02:35;;;;;;;17.27;10.50;;;6.80;99.90;;;;;;4982901;28;20519;-65
2024/01/01 02:05:03;;;;;;;13.33;9.90;;;6.80;99.90;;;;;;4983302;28;20506;-65
2024/01/01 02:07:32;;;;;;;15.80;10.17;;;6.80;99.90;;;;;;4982482;28;20935;-64
2024/01/01 02:10:00;;;;;;;14.00;9.73;;;6.80;99.90;;;;;;4981829;28;20478;-64
2024/01/01 02:12:28;;;;;;;14.50;9.20;;;6.80;99.90;;;;;;4982218;28;20500;-64
2024/01/01 02:14:56;;;;;;;11.13;8.70;;;6.80;99.90;;;;;;4982280;28;20476;-64
2024/01/01 02:17:24;;;;;;;11.50;8.07;;;6.80;99.90;;;;;;4982595;28;20915;-64
2024/01/01 02:19:54;;;;;;;15.73;10.30;;;6.80;99.90;;;;;;4979022;28;20492;-64
2024/01/01 02:22:37;;;;;;;15.27;10.50;;;6.80;99.90;;;;;;4982267;28;20478;-64
2024/01/01 02:25:08;;;;;;;10.83;8.20;;;6.70;99.90;;;;;;4983532;28;20473;-64
2024/01/01 02:27:37;;;;;;;13.80;8.97;;;6.70;99.90;;;;;;4982588;28;20506;-64
2024/01/01 02:30:10;;;;;;;12.87;7.97;;;6.80;99.90;;;;;;4981547;28;20539;-64
2024/01/01 02:32:39;;;;;;;9.13;8.07;;;6.80;99.90;;;;;;4983379;28;20473;-64
2024/01/01 02:35:08;;;;;;;13.37;8.83;;;6.80;99.90;;;;;;4982749;28;20461;-64
2024/01/01 02:37:37;;;;;;;9.50;6.83;;;6.80;99.90;;;;;;4981697;28;20497;-63
2024/01/01 02:40:08;;;;;;;10.40;7.17;;;6.80;99.90;;;;;;4982579;28;20481;-64
2024/01/01 02:42:37;;;;;;;12.43;6.83;;;6.80;99.90;;;;;;4983949;28;20473;-64
2024/01/01 02:45:06;;;;;;;9.43;7.03;;;6.80;99.90;;;;;;4982803;28;21044;-64
2024/01/01 02:47:35;;;;;;;9.53;7.50;;;6.80;99.90;;;;;;4975471;28;20596;-64
2024/01/01 02:50:03;;;;;;;11.90;7.77;;;6.80;99.90;;;;;;4981837;28;20473;-64
2024/01/01 02:52:32;;;;;;;11.10;7.67;;;6.80;99.90;;;;;;4980690;28;20495;-65
2024/01/01 02:55:00;;;;;;;11.50;8.20;;;6.80;99.90;;;;;;4981871;28;20915;-64
2024/01/01 02:57:29;;;;;;;10.20;8.20;;;6.80;99.90;;;;;;4981428;28;21050;-64
2024/01/01 02:59:57;;;;;;;11.90;7.97;;;6.80;99.90;;;;;;4981207;28;20481;-64
2024/01/01 03:02:25;;;;;;;10.93;8.40;;;6.80;99.90;;;;;;4980941;28;20567;-65
2024/01/01 03:04:53;;;;;;;9.80;7.63;;;6.80;99.90;;;;;;4981163;28;21064;-64
2024/01/01 03:07:21;;;;;;;13.40;8.90;;;6.80;99.90;;;;;;4983146;28;20916;-64
2024/01/01 03:09:50;;;;;;;11.47;8.23;;;6.80;99.90;;;;;;4980637;28;20500;-64
2024/01/01 03:12:18;;;;;;;11.13;8.27;;;6.80;99.90;;;;;;4982543;28;20473;-64
2024/01/01 03:14:48;;;;;;;13.43;8.57;;;6.80;99.90;;;;;;4980016;28;20802;-64
2024/01/01 03:17:16;;;;;;;15.37;9.47;;;6.80;99.90;;;;;;4980967;28;20489;-64
2024/01/01 03:19:44;;;;;;;11.37;8.83;;;6.80;99.90;;;;;;4980716;28;20482;-64
2024/01/01 03:22:12;;;;;;;10.17;8.17;;;6.80;99.90;;;;;;4982234;28;20492;-64
2024/01/01 03:24:40;;;;;;;14.37;8.83;;;6.80;99.90;;;;;;4979804;28;21014;-65
2024/01/01 03:27:08;;;;;;;10.83;8.00;;;6.80;99.90;;;;;;4982015;28;20507;-64
2024/01/01 03:29:36;;;;;;;12.40;8.70;;;6.80;99.90;;;;;;4980972;28;21082;-64
2024/01/01 03:32:06;;;;;;;11.13;8.90;;;6.80;99.90;;;;;;4981641;28;21053;-64
2024/01/01 03:34:34;;;;;;;12.60;9.03;;;6.80;99.90;;;;;;4981232;28;20476;-64
2024/01/01 03:37:03;;;;;;;15.07;8.73;;;6.80;99.90;;;;;;4979906;28;20968;-64
2024/01/01 03:39:31;;;;;;;15.10;9.50;;;6.80;99.90;;;;;;4980580;28;20506;-65
2024/01/01 03:41:59;;;;;;;13.30;10.00;;;6.80;99.90;;;;;;4982008;28;20993;-64
2024/01/01 03:44:26;;;;;;;13.43;9.37;;;6.90;99.90;;;;;;4980554;28;20592;-64
2024/01/01 03:46:54;;;;;;;12.63;9.23;;;6.90;99.90;;;;;;4981811;28;20587;-64
2024/01/01 03:49:24;;;;;;;14.03;9.00;;;6.90;99.90;;;;;;4981507;28;20477;-64
2024/01/01 03:51:52;;;;;;;11.00;9.30;;;6.90;99.90;;;;;;4982532;28;20504;-64
2024/01/01 03:54:20;;;;;;;11.73;8.70;;;6.90;99.90;;;;;;4980596;28;20527;-65
2024/01/01 03:56:48;;;;;;;11.43;9.60;;;6.90;99.90;;;;;;4982194;28;20864;-64
2024/01/01 03:59:16;;;;;;;13.53;9.30;;;7.00;99.90;;;;;;4980792;28;21077;-64
2024/01/01 04:01:44;;;;;;;12.00;9.60;;;7.00;99.90;;;;;;4980636;28;20465;-64
2024/01/01 04:04:12;;;;;;;12.47;8.83;;;7.00;99.90;;;;;;4980064;28;21341;-63
2024/01/01 04:06:41;;;;;;;11.70;9.13;;;7.00;99.90;;;;;;4980181;28;20490;-64
2024/01/01 04:09:10;;;;;;;18.73;10.87;;;7.00;99.90;;;;;;4980670;28;20509;-64
2024/01/01 04:11:39;;;;;;;15.13;10.97;;;7.00;99.90;;;;;;4978761;28;20478;-64
2024/01/01 04:14:07;;;;;;;12.07;9.37;;;7.00;99.90;;;;;;4982176;28;20477;-64
2024/01/01 04:16:37;;;;;;;13.60;9.60;;;7.10;99.90;;;;;;4979958;28;20480;-64
2024/01/01 04:19:05;;;;;;;13.43;9.60;;;7.00;99.90;;;;;;4980146;28;20512;-65
2024/01/01 04:21:33;;;;;;;14.37;10.17;;;7.10;99.90;;;;;;4980668;28;20563;-64
2024/01/01 04:24:03;;;;;;;10.93;9.30;;;7.10;99.90;;;;;;4981631;28;20599;-64
2024/01/01 04:26:31;;;;;;;12.10;9.77;;;7.10;99.90;;;;;;4981020;28;20485;-65
2024/01/01 04:28:59;;;;;;;12.37;10.40;;;7.10;99.90;;;;;;4979250;28;20584;-65
2024/01/01 04:31:27;;;;;;;14.50;10.87;;;7.10;99.90;;;;;;4981504;28;20470;-64
2024/01/01 04:33:56;;;;;;;15.10;11.50;;;7.10;99.90;;;;;;4981226;28;20503;-64
2024/01/01 04:36:24;;;;;;;13.70;10.60;;;7.10;99.90;;;;;;4979346;28;20478;-64
2024/01/01 04:38:52;;;;;;;12.93;10.47;;;7.10;99.90;;;;;;4980517;28;20861;-64
2024/01/01 04:41:21;;;;;;;12.70;10.37;;;7.10;99.90;;;;;;4981133;28;20471;-64
2024/01/01 04:43:49;;;;;;;12.20;10.20;;;7.20;99.90;;;;;;4979448;28;21039;-64
2024/01/01 04:46:17;;;;;;;15.60;10.97;;;7.20;99.90;;;;;;4982041;28;20469;-64
2024/01/01 04:48:45;;;;;;;12.97;9.93;;;7.20;99.90;;;;;;4979838;28;20582;-64
2024/01/01 04:51:13;;;;;;;11.20;9.67;;;7.20;99.90;;;;;;4980330;28;20468;-64
2024/01/01 04:53:41;;;;;;;16.17;11.50;;;7.20;99.90;;;;;;4978316;28;20541;-64
2024/01/01 04:56:09;;;;;;;13.80;10.27;;;7.20;99.90;;;;;;4978916;28;21020;-64
2024/01/01 04:58:39;;;;;;;16.20;11.57;;;7.20;99.90;;;;;;4979772;28;20559;-64
2024/01/01 05:01:07;;;;;;;14.07;10.90;;;7.20;99.90;;;;;;4979637;28;20942;-64
2024/01/01 05:03:35;;;;;;;11.67;10.13;;;7.20;99.90;;;;;;4980714;28;20864;-65
2024/01/01 05:06:03;;;;;;;12.30;10.30;;;7.20;99.90;;;;;;4979586;28;20486;-64
2024/01/01 05:08:31;;;;;;;15.87;10.20;;;7.20;99.90;;;;;;4979352;28;20488;-63
2024/01/01 05:10:59;;;;;;;13.50;10.30;;;7.20;99.90;;;;;;4979682;28;20481;-65
2024/01/01 05:13:27;;;;;;;16.67;11.03;;;7.20;99.90;;;;;;4980410;28;20841;-64
2024/01/01 05:15:56;;;;;;;14.53;10.23;;;7.20;99.90;;;;;;4979787;28;20555;-64
2024/01/01 05:18:24;;;;;;;12.23;9.80;;;7.30;99.90;;;;;;4978415;28;20524;-64
2024/01/01 05:20:52;;;;;;;15.60;11.10;;;7.30;99.90;;;;;;4971321;28;20505;-64
2024/01/01 05:23:21;;;;;;;15.77;9.43;;;7.30;99.90;;;;;;4981647;28;20497;-64
2024/01/01 05:25:49;;;;;;;14.43;10.27;;;7.30;99.90;;;;;;4977400;28;21029;-64
2024/01/01 05:28:17;;;;;;;13.80;9.73;;;7.30;99.90;;;;;;4979269;28;21049;-64
2024/01/01 05:30:46;;;;;;;17.27;9.37;;;7.30;99.90;;;;;;4979381;28;20480;-64
2024/01/01 05:33:15;;;;;;;17.20;10.80;;;7.30;99.90;;;;;;4980365;28;20481;-64
2024/01/01 05:35:43;;;;;;;12.40;9.10;;;7.30;99.90;;;;;;4977916;28;20573;-64
2024/01/01 05:38:12;;;;;;;11.67;8.93;;;7.30;99.90;;;;;;4979599;28;20479;-64
2024/01/01 05:40:42;;;;;;;13.97;9.63;;;7.30;99.90;;;;;;4980001;28;20732;-64
2024/01/01 05:43:10;;;;;;;9.60;8.33;;;7.30;99.90;;;;;;4980960;28;20921;-65
2024/01/01 05:45:38;;;;;;;11.50;9.17;;;7.30;99.90;;;;;;4979693;28;20529;-64
2024/01/01 05:48:06;;;;;;;11.80;8.97;;;7.40;99.90;;;;;;4982660;28;20508;-64
2024/01/01 05:50:47;;;;;;;10.37;8.10;;;7.40;99.90;;;;;;4980416;28;20566;-64
2024/01/01 05:53:15;;;;;;;14.30;8.97;;;7.40;99.90;;;;;;4983085;28;20868;-65
2024/01/01 05:55:43;;;;;;;12.03;7.20;;;7.40;99.90;;;;;;4982840;28;20476;-64
2024/01/01 05:58:11;;;;;;;9.57;6.93;;;7.40;99.90;;;;;;4981202;28;20485;-64
2024/01/01 06:00:39;;;;;;;10.27;8.17;;;7.40;99.90;;;;;;4983413;28;20473;-64
2024/01/01 06:03:08;;;;;;;12.20;7.70;;;7.40;99.90;;;;;;4979594;28;20480;-64
2024/01/01 06:05:36;;;;;;;9.00;7.37;;;7.50;99.90;;;;;;4982176;28;20512;-64
2024/01/01 06:08:06;;;;;;;11.40;7.20;;;7.50;99.90;;;;;;4982878;28;20481;-64
2024/01/01 06:10:35;;;;;;;9.90;6.70;;;7.50;99.90;;;;;;4981464;28;20466;-65
2024/01/01 06:13:04;;;;;;;8.63;6.57;;;7.50;99.90;;;;;;4983018;28;20465;-64
2024/01/01 06:15:32;;;;;;;9.80;7.10;;;7.50;99.90;;;;;;4983463;28;20465;-65
2024/01/01 06:18:00;;;;;;;9.00;6.10;;;7.60;99.90;;;;;;4981916;28;20608;-64
2024/01/01 06:20:28;;;;;;;8.97;6.80;;;7.60;99.90;;;;;;4982206;28;20528;-65
2024/01/01 06:22:56;;;;;;;8.90;6.60;;;7.60;99.90;;;;;;4983948;28;21151;-64
2024/01/01 06:25:26;;;;;;;11.07;6.23;;;7.60;99.90;;;;;;4982208;28;20489;-64
2024/01/01 06:27:54;;;;;;;11.30;5.87;;;7.60;99.90;;;;;;4981791;28;20905;-64
2024/01/01 06:30:22;;;;;;;11.87;6.17;;;7.60;99.90;;;;;;4982441;28;20591;-64
2024/01/01 06:32:50;;;;;;;8.90;6.23;;;7.60;99.90;;;;;;4983248;28;20536;-65
2024/01/01 06:35:18;;;;;;;8.27;5.43;;;7.60;99.90;;;;;;4977958;28;20474;-64
2024/01/01 06:37:47;;;;;;;6.67;4.50;;;7.60;99.90;;;;;;4983051;28;20520;-64
2024/01/01 06:40:15;;;;;;;9.60;4.90;;;7.60;99.90;;;;;;4982967;28;20496;-65
2024/01/01 06:42:44;;;;;;;5.90;5.03;;;7.60;99.90;;;;;;4983364;28;20488;-64
2024/01/01 06:45:14;;;;;;;6.93;5.27;;;7.60;99.90;;;;;;4982606;28;20591;-64
2024/01/01 06:47:42;;;;;;;7.37;4.90;;;7.50;99.90;;;;;;4976142;28;20505;-65
2024/01/01 06:50:11;;;;;;;7.27;4.80;;;7.50;99.90;;;;;;4982179;28;20474;-64
2024/01/01 06:52:39;;;;;;;6.60;4.50;;;7.50;99.90;;;;;;4982697;28;20465;-64
2024/01/01 06:55:07;;;;;;;8.10;4.67;;;7.50;99.90;;;;;;4977198;28;21015;-65
2024/01/01 06:57:35;;;;;;;6.03;4.23;;;7.50;99.90;;;;;;4982293;28;20504;-64
2024/01/01 07:00:06;;;;;;;8.07;4.30;;;7.50;99.90;;;;;;4981092;28;20576;-64
2024/01/01 07:02:34;;;;;;;6.77;4.40;;;7.50;99.90;;;;;;4979622;28;20565;-63
2024/01/01 07:05:02;;;;;;;5.30;3.90;;;7.50;99.90;;;;;;4982605;28;20553;-65
2024/01/01 07:07:30;;;;;;;5.70;3.87;;;7.40;99.90;;;;;;4982318;28;20505;-65
2024/01/01 07:09:58;;;;;;;5.70;3.70;;;7.40;99.90;;;;;;4981986;28;20491;-65
2024/01/01 07:12:27;;;;;;;5.53;4.07;;;7.40;99.90;;;;;;4981097;28;20484;-64
2024/01/01 07:14:55;;;;;;;5.80;4.13;;;7.40;99.90;;;;;;4982684;28;20845;-64
2024/01/01 07:17:25;;;;;;;7.43;4.20;;;7.40;99.90;;;;;;4981280;28;20546;-64
2024/01/01 07:19:53;;;;;;;5.93;4.57;;;7.40;99.90;;;;;;4981963;28;20476;-64
2024/01/01 07:22:21;;;;;;;5.77;4.17;;;7.40;99.90;;;;;;4979998;28;20907;-64
2024/01/01 07:24:49;;;;;;;4.57;3.63;;;7.40;99.90;;;;;;4981905;28;20560;-64
2024/01/01 07:27:17;;;;;;;6.10;4.33;;;7.40;99.90;;;;;;4981619;28;21113;-65
2024/01/01 07:29:45;;;;;;;4.97;3.47;;;7.40;99.90;;;;;;4976535;28;22323;-64
2024/01/01 07:32:13;;;;;;;8.80;4.07;;;7.40;99.90;;;;;;4982513;28;20564;-64
2024/01/01 07:34:43;;;;;;;6.10;4.23;;;7.40;99.90;;;;;;4982471;28;20990;-64
2024/01/01 07:37:11;;;;;;;6.70;3.67;;;7.40;99.90;;;;;;4982738;28;20490;-64
2024/01/01 07:39:39;;;;;;;7.73;4.53;;;7.40;99.90;;;;;;4980350;28;20576;-64
2024/01/01 07:42:08;;;;;;;4.43;3.73;;;7.40;99.90;;;;;;4982315;28;20560;-64
2024/01/01 07:44:36;;;;;;;4.37;3.83;;;7.40;99.90;;;;;;4982369;28;20478;-64
2024/01/01 07:47:04;;;;;;;6.90;3.97;;;7.40;99.90;;;;;;4982131;28;20785;-64
2024/01/01 07:49:32;;;;;;;5.80;4.00;;;7.40;99.90;;;;;;4981180;28;20527;-64
2024/01/01 07:52:02;;;;;;;6.17;4.00;;;7.40;99.90;;;;;;4982762;28;20502;-64
2024/01/01 07:54:30;;;;;;;5.67;4.60;;;7.40;99.90;;;;;;4979845;28;20529;-65
2024/01/01 07:56:58;;;;;;;6.37;4.00;;;7.40;99.90;;;;;;4980845;28;20614;-64
2024/01/01 07:59:26;;;;;;;6.70;3.77;;;7.40;99.90;;;;;;4981082;28;20593;-64
2024/01/01 08:01:54;;;;;;;5.63;4.00;;;7.40;99.90;;;;;;4979651;28;20983;-64
2024/01/01 08:04:22;;;;;;;5.93;3.90;;;7.40;99.90;;;;;;4981344;28;20466;-63
2024/01/01 08:06:50;;;;;;;4.57;4.10;;;7.40;99.90;;;;;;4980859;28;20504;-64
2024/01/01 08:09:19;;;;;;;8.20;3.73;;;7.40;99.90;;;;;;4979911;28;20485;-64
2024/01/01 08:11:47;;;;;;;7.40;4.30;;;7.40;99.90;;;;;;4979705;28;20470;-64
2024/01/01 08:14:15;;;;;;;5.30;3.43;;;7.50;99.90;;;;;;4981298;28;21013;-64
2024/01/01 08:16:43;;;;;;;5.70;3.83;;;7.50;99.90;;;;;;4981278;28;20520;-65
2024/01/01 08:19:11;;;;;;;8.60;4.53;;;7.50;99.90;;;;;;4980613;28;20537;-64
2024/01/01 08:21:39;;;;;;;6.17;3.63;;;7.50;99.90;;;;;;4981272;28;20473;-64
2024/01/01 08:24:08;;;;;;;8.03;4.00;;;7.50;99.90;;;;;;4981055;28;20476;-65
2024/01/01 08:26:37;;;;;;;6.60;4.07;;;7.50;99.90;;;;;;4980852;28;20576;-64
2024/01/01 08:29:05;;;;;;;5.07;4.00;;;7.50;99.90;;;;;;4979526;28;20496;-64
2024/01/01 08:31:33;;;;;;;5.83;3.80;;;7.50;99.90;;;;;;4980287;28;20472;-64
2024/01/01 08:34:01;;;;;;;7.03;3.93;;;7.50;99.90;;;;;;4980744;28;20505;-65
2024/01/01 08:36:29;;;;;;;6.40;3.93;;;7.50;99.90;;;;;;4980573;28;20564;-64
2024/01/01 08:38:57;;;;;;;5.60;3.70;;;7.50;99.90;;;;;;4978820;28;20477;-64
2024/01/01 08:41:25;;;;;;;5.97;3.80;;;7.50;99.90;;;;;;4980574;28;20469;-64
2024/01/01 08:43:57;;;;;;;4.67;3.80;;;7.40;99.90;;;;;;4981242;28;20990;-64
2024/01/01 08:46:26;;;;;;;5.33;3.60;;;7.50;99.90;;;;;;4979620;28;20520;-64
2024/01/01 08:48:54;;;;;;;5.00;3.60;;;7.50;99.90;;;;;;4981221;28;20539;-63
2024/01/01 08:51:23;;;;;;;4.33;3.67;;;7.50;99.90;;;;;;4979114;28;20473;-63
2024/01/01 08:53:51;;;;;;;6.07;3.40;;;7.50;99.90;;;;;;4981975;28;20841;-64
2024/01/01 08:56:19;;;;;;;6.60;4.10;;;7.50;99.90;;;;;;4980976;28;20912;-65
2024/01/01 08:58:47;;;;;;;4.63;3.30;;;7.50;99.90;;;;;;4979214;28;20486;-65
2024/01/01 09:01:16;;;;;;;4.97;3.53;;;7.50;99.90;;;;;;4981457;28;20575;-63
2024/01/01 09:03:44;;;;;;;5.30;3.60;;;7.50;99.90;;;;;;4977884;28;20527;-64
2024/01/01 09:06:12;;;;;;;6.37;4.20;;;7.50;99.90;;;;;;4980908;28;20480;-64
2024/01/01 09:08:40;;;;;;;6.00;3.90;;;7.50;99.90;;;;;;4979880;28;20494;-64
2024/01/01 09:11:08;;;;;;;6.53;3.90;;;7.50;99.90;;;;;;4979522;28;20565;-62
2024/01/01 09:13:36;;;;;;;4.80;4.03;;;7.40;99.90;;;;;;4980927;28;20965;-64
2024/01/01 09:16:05;;;;;;;7.03;4.30;;;7.40;99.90;;;;;;4979139;28;20485;-64
2024/01/01 09:18:34;;;;;;;7.17;4.00;;;7.40;99.90;;;;;;4979846;28;20489;-64
2024/01/01 09:21:02;;;;;;;7.73;4.33;;;7.30;99.90;;;;;;4980099;28;20470;-64
2024/01/01 09:23:31;;;;;;;5.50;3.83;;;7.20;99.90;;;;;;4984173;28;20501;-64
2024/01/01 09:25:59;;;;;;;6.70;4.07;;;7.30;99.90;;;;;;4984833;28;20561;-64
2024/01/01 09:28:27;;;;;;;5.73;3.67;;;7.20;99.90;;;;;;4980433;28;20489;-64
2024/01/01 09:30:55;;;;;;;5.57;4.13;;;7.20;99.90;;;;;;4984535;28;20497;-64
2024/01/01 09:33:23;;;;;;;5.93;3.80;;;7.20;99.90;;;;;;4984616;28;20472;-64
2024/01/01 09:35:55;;;;;;;6.50;4.03;;;7.20;99.90;;;;;;4984010;28;20500;-64
2024/01/01 09:38:23;;;;;;;5.03;3.60;;;7.20;99.90;;;;;;4984653;28;20718;-64
2024/01/01 09:40:53;;;;;;;6.17;4.27;;;7.20;99.90;;;;;;4985762;28;20478;-64
2024/01/01 09:43:22;;;;;;;4.83;3.47;;;7.20;99.90;;;;;;4984207;28;20569;-63
2024/01/01 09:45:50;;;;;;;4.73;3.97;;;7.20;99.90;;;;;;4984342;28;20513;-64
2024/01/01 09:48:18;;;;;;;6.50;4.23;;;7.20;99.90;;;;;;4982921;28;20505;-64
2024/01/01 09:50:48;;;;;;;5.67;3.90;;;7.20;99.90;;;;;;4983446;28;20474;-63
2024/01/01 09:53:18;;;;;;;7.00;4.23;;;7.20;99.90;;;;;;4982831;28;20967;-63
2024/01/01 09:55:51;;;;;;;8.27;4.60;;;7.20;99.90;;;;;;4982148;28;20469;-64
2024/01/01 09:58:19;;;;;;;4.50;3.80;;;7.10;99.90;;;;;;4982401;28;20982;-64
2024/01/01 10:00:48;;;;;;;5.23;3.57;;;7.20;99.90;;;;;;4983842;28;20535;-63
2024/01/01 10:03:16;;;;;;;5.90;3.23;;;7.10;99.90;;;;;;4983515;28;20469;-64
2024/01/01 10:05:48;;;;;;;7.00;3.90;;;7.10;99.90;;;;;;4983125;28;20512;-64
2024/01/01 10:08:18;;;;;;;5.33;3.57;;;7.10;99.90;;;;;;4982706;28;20509;-64
2024/01/01 10:10:46;;;;;;;8.43;4.10;;;7.10;99.90;;;;;;4983167;28;20559;-64
2024/01/01 10:13:17;;;;;;;6.03;3.77;;;7.10;99.90;;;;;;4983640;28;20870;-64
2024/01/01 10:15:45;;;;;;;5.57;3.37;;;7.10;99.90;;;;;;4982396;28;20737;-64
2024/01/01 10:18:15;;;;;;;4.53;3.30;;;7.10;99.90;;;;;;4982540;28;21424;-64
2024/01/01 10:20:45;;;;;;;5.27;3.10;;;7.20;99.90;;;;;;4983106;28;20481;-64
2024/01/01 10:23:29;;;;;;;7.10;3.47;;;7.20;99.90;;;;;;4981070;28;21245;-64
2024/01/01 10:26:09;;;;;;;8.27;3.70;;;7.20;99.90;;;;;;4983172;28;20488;-64
2024/01/01 10:28:37;;;;;;;7.90;3.40;;;7.20;99.90;;;;;;4982383;28;21101;-63
2024/01/01 10:31:05;;;;;;;6.47;3.23;;;7.30;99.90;;;;;;4982918;28;20923;-64
2024/01/01 10:33:34;;;;;;;6.17;4.60;;;7.30;99.90;;;;;;4981699;28;20480;-64
2024/01/01 10:36:03;;;;;;;4.53;3.23;;;7.30;99.90;;;;;;4982975;28;20472;-63
2024/01/01 10:38:34;;;;;;;4.60;3.10;;;7.30;99.90;;;;;;4982032;28;21053;-64
2024/01/01 10:41:02;;;;;;;5.10;2.93;;;7.40;99.90;;;;;;4983591;28;21026;-64
2024/01/01 10:43:30;;;;;;;7.80;3.57;;;7.40;99.90;;;;;;4983440;28;20487;-64
2024/01/01 10:46:03;;;;;;;5.63;3.13;;;7.40;99.90;;;;;;4983023;28;20475;-64
2024/01/01 10:48:33;;;;;;;7.50;3.03;;;7.40;99.90;;;;;;4981051;28;20549;-64
2024/01/01 10:51:11;;;;;;;3.93;3.00;;;7.40;99.90;;;;;;4983142;28;20483;-65
2024/01/01 10:54:16;;;;;;;6.20;3.93;;;7.50;99.90;;;;;;4981902;28;21021;-63
2024/01/01 10:56:55;;;;;;;5.20;3.20;;;7.50;99.90;;;;;;4969836;28;21236;-63
2024/01/01 10:59:27;;;;;;;6.83;3.00;;;7.60;99.90;;;;;;4982439;28;20940;-64
2024/01/01 11:01:56;;;;;;;6.07;3.13;;;7.60;99.90;;;;;;4982101;28;21373;-64
2024/01/01 11:04:25;;;;;;;5.37;3.40;;;7.50;99.90;;;;;;4982627;28;20469;-64
2024/01/01 11:06:52;;;;;;;5.03;3.03;;;7.60;99.90;;;;;;4983040;28;20500;-63
2024/01/01 11:09:33;;;;;;;5.53;4.20;;;7.60;99.90;;;;;;4980745;28;20489;-64
2024/01/01 11:12:02;;;;;;;6.13;3.17;;;7.60;99.90;;;;;;4982883;28;20508;-64
2024/01/01 11:14:32;;;;;;;6.47;3.43;;;7.60;99.90;;;;;;4982096;28;20484;-64
2024/01/01 11:17:04;;;;;;;6.50;3.67;;;7.60;99.90;;;;;;4982789;28;21187;-64
2024/01/01 11:19:36;;;;;;;4.53;3.00;;;7.60;99.90;;;;;;4973644;28;21097;-64
2024/01/01 11:22:30;;;;;;;4.67;3.03;;;7.60;99.90;;;;;;4983105;28;20561;-64
2024/01/01 11:25:02;;;;;;;4.67;3.53;;;7.60;99.90;;;;;;4980911;28;20557;-64
2024/01/01 11:27:32;;;;;;;6.77;3.23;;;7.60;99.90;;;;;;4982082;28;20523;-63
2024/01/01 11:30:02;;;;;;;4.73;2.67;;;7.60;99.90;;;;;;4981077;28;20613;-64
2024/01/01 11:32:30;;;;;;;5.43;2.70;;;7.60;99.90;;;;;;4981887;28;20483;-64
2024/01/01 11:35:06;;;;;;;6.43;3.10;;;7.60;99.90;;;;;;4982439;28;20495;-63
2024/01/01 11:37:35;;;;;;;8.20;3.33;;;7.70;99.90;;;;;;4981015;28;20488;-63
2024/01/01 11:40:06;;;;;;;5.80;2.80;;;7.70;99.90;;;;;;4981507;28;20584;-64
2024/01/01 11:42:35;;;;;;;6.30;3.03;;;7.70;99.90;;;;;;4980249;28;21233;-64
2024/01/01 11:45:10;;;;;;;7.40;3.13;;;7.70;99.90;;;;;;4981683;28;20511;-64
2024/01/01 11:47:39;;;;;;;5.83;3.13;;;7.70;99.90;;;;;;4980179;28;20588;-64
2024/01/01 11:50:09;;;;;;;8.23;3.53;;;7.80;99.90;;;;;;4981735;28;20488;-63
2024/01/01 11:52:37;;;;;;;4.77;3.40;;;7.80;99.90;;;;;;4972297;28;20477;-62
2024/01/01 11:55:07;;;;;;;7.73;3.10;;;7.80;99.90;;;;;;4982037;28;20477;-63
2024/01/01 11:57:35;;;;;;;7.70;3.00;;;7.90;99.90;;;;;;4981985;28;20579;-64
2024/01/01 12:00:05;;;;;;;5.40;3.20;;;7.90;99.90;;;;;;4981755;28;20481;-64
2024/01/01 12:02:33;;;;;;;6.93;3.70;;;7.90;99.90;;;;;;4981725;28;20485;-65
2024/01/01 12:05:01;;;;;;;8.43;4.03;;;7.90;99.90;;;;;;4981284;28;20530;-63
2024/01/01 12:07:31;;;;;;;6.50;3.67;;;7.90;99.90;;;;;;4982073;28;20501;-64
2024/01/01 12:10:06;;;;;;;8.37;3.57;;;7.90;99.90;;;;;;4979993;28;20493;-64
2024/01/01 12:12:36;;;;;;;6.90;3.20;;;7.90;99.90;;;;;;4981754;28;20493;-64
2024/01/01 12:15:09;;;;;;;6.17;3.33;;;7.90;99.90;;;;;;4981567;28;20909;-65
2024/01/01 12:17:45;;;;;;;4.60;3.23;;;7.80;99.90;;;;;;4981745;28;20561;-64
2024/01/01 12:20:15;;;;;;;8.60;2.87;;;7.80;99.90;;;;;;4979743;28;20571;-65
2024/01/01 12:22:44;;;;;;;6.87;3.37;;;7.80;99.90;;;;;;4979195;28;20478;-64
2024/01/01 12:25:16;;;;;;;8.40;3.33;;;7.80;99.90;;;;;;4982180;28;20475;-64
2024/01/01 12:28:02;;;;;;;4.63;3.20;;;7.80;99.90;;;;;;4980517;28;20485;-64
2024/01/01 12:30:31;;;;;;;5.93;3.10;;;7.80;99.90;;;;;;4982136;28;20509;-63
2024/01/01 12:32:59;;;;;;;5.37;2.93;;;7.80;99.90;;;;;;4980308;28;20777;-63
2024/01/01 12:35:27;;;;;;;4.07;2.80;;;7.80;99.90;;;;;;4981299;28;20495;-63
2024/01/01 12:37:56;;;;;;;6.77;2.90;;;7.80;99.90;;;;;;4980885;28;20504;-63
2024/01/01 12:40:27;;;;;;;6.10;3.00;;;7.90;99.90;;;;;;4979909;28;20508;-64
2024/01/01 12:42:57;;;;;;;6.67;3.03;;;7.90;99.90;;;;;;4982006;28;20479;-63
2024/01/01 12:45:26;;;;;;;3.53;2.30;;;7.90;99.90;;;;;;4978976;28;20474;-64
2024/01/01 12:47:58;;;;;;;3.90;2.60;;;7.90;99.90;;;;;;4979680;28;20497;-63
2024/01/01 12:50:26;;;;;;;4.40;2.87;;;7.90;99.90;;;;;;4977265;28;20480;-64
2024/01/01 12:52:54;;;;;;;3.60;2.77;;;8.00;99.90;;;;;;4980574;28;20492;-63
2024/01/01 12:55:22;;;;;;;6.67;2.57;;;8.00;99.90;;;;;;4980248;28;20473;-64
2024/01/01 12:57:51;;;;;;;8.90;4.07;;;8.00;99.90;;;;;;4982685;28;20512;-63
2024/01/01 13:00:21;;;;;;;2.83;2.20;;;8.00;99.90;;;;;;4984614;28;20483;-64